Time;durP1;ratioP1;P1;durP2;ratioP2;P2;SDS_P1;SDS_P2;PMS_P1;PMS_P2;Temp;Humidity;BMP_temperature;BMP_pressure;BME280_temperature;BME280_humidity;BME280_pressure;Samples;Min_cycle;Max_cycle;Signal;HPM_P1;HPM_P2
2022/07/05 00:00:44;;;;;;;8.80;7.00;;;;;;;13.86;83.17;101993.75;4931825;29;20035;-81
2022/07/05 00:03:10;;;;;;;9.37;7.10;;;;;;;13.86;83.14;101999.19;4937093;29;20039;-78
2022/07/05 00:05:36;;;;;;;9.83;7.00;;;;;;;13.91;82.67;101996.69;4938061;29;20043;-79
2022/07/05 00:08:02;;;;;;;10.10;7.57;;;;;;;13.91;81.90;101996.69;4943682;29;20074;-79
2022/07/05 00:10:28;;;;;;;9.07;7.37;;;;;;;13.81;83.07;101990.78;4954850;29;20019;-79
2022/07/05 00:12:53;;;;;;;11.87;7.90;;;;;;;13.83;82.55;101989.53;4956100;29;20047;-79
2022/07/05 00:15:19;;;;;;;11.13;7.57;;;;;;;13.80;83.21;101995.41;4957457;29;20039;-79
2022/07/05 00:17:44;;;;;;;9.00;7.40;;;;;;;13.71;83.62;101990.31;4956160;29;20042;-79
2022/07/05 00:20:10;;;;;;;9.00;7.53;;;;;;;13.64;84.53;101987.56;4956066;29;20028;-79
2022/07/05 00:22:35;;;;;;;11.27;7.97;;;;;;;13.58;84.45;101980.25;4955600;29;20031;-79
2022/07/05 00:25:00;;;;;;;11.70;7.90;;;;;;;13.46;84.45;101982.72;4954023;29;20035;-79
2022/07/05 00:27:26;;;;;;;10.80;7.80;;;;;;;13.60;84.43;101994.47;4954772;29;20031;-79
2022/07/05 00:29:51;;;;;;;11.03;7.70;;;;;;;13.52;84.17;101995.53;4953933;29;20090;-79
2022/07/05 00:32:17;;;;;;;10.83;7.27;;;;;;;13.51;83.79;101980.22;4933433;29;20042;-79
2022/07/05 00:34:42;;;;;;;10.53;7.50;;;;;;;13.45;83.48;101981.88;4954909;29;20467;-79
2022/07/05 00:37:07;;;;;;;9.60;7.33;;;;;;;13.47;83.89;101990.66;4954523;29;20031;-79
2022/07/05 00:39:33;;;;;;;8.20;7.27;;;;;;;13.39;83.80;101982.66;4949597;29;20071;-79
2022/07/05 00:42:00;;;;;;;11.20;8.00;;;;;;;13.38;84.07;101980.16;4937370;29;20059;-79
2022/07/05 00:44:44;;;;;;;8.73;7.50;;;;;;;13.28;83.56;101980.50;4948532;29;20074;-79
2022/07/05 00:47:11;;;;;;;8.63;7.50;;;;;;;13.16;84.40;101982.94;4954828;29;20416;-79
2022/07/05 00:49:38;;;;;;;13.40;8.50;;;;;;;13.11;85.53;101980.84;4956414;29;20054;-79
2022/07/05 00:52:05;;;;;;;10.80;8.57;;;;;;;13.07;86.06;101973.28;4956156;29;20030;-79
2022/07/05 00:54:33;;;;;;;9.47;8.13;;;;;;;12.98;86.40;101976.16;4951638;29;20027;-79
2022/07/05 00:56:59;;;;;;;11.93;8.57;;;;;;;12.97;86.45;101979.94;4945280;29;20039;-79
2022/07/05 00:59:25;;;;;;;10.83;8.80;;;;;;;12.93;86.81;101972.34;4945843;29;20031;-79
2022/07/05 01:01:51;;;;;;;11.13;8.60;;;;;;;12.87;87.12;101984.06;4952504;28;20094;-81
2022/07/05 01:04:16;;;;;;;10.87;8.63;;;;;;;12.83;86.78;101979.00;4952703;29;20476;-79
2022/07/05 01:06:44;;;;;;;11.73;9.07;;;;;;;12.78;87.13;101989.66;4954092;29;20119;-79
2022/07/05 01:09:15;;;;;;;12.70;9.47;;;;;;;12.77;87.61;101989.81;4956252;29;20351;-79
2022/07/05 01:11:42;;;;;;;11.93;8.80;;;;;;;12.80;87.14;101997.59;4956561;29;20119;-79
2022/07/05 01:14:10;;;;;;;10.00;9.00;;;;;;;12.82;87.35;102003.66;4955128;29;20424;-79
2022/07/05 01:16:38;;;;;;;10.60;8.27;;;;;;;12.67;86.95;101995.63;4952786;29;20039;-79
2022/07/05 01:19:08;;;;;;;10.00;8.87;;;;;;;12.62;87.21;101985.34;4945480;29;20032;-79
2022/07/05 01:21:39;;;;;;;12.43;8.97;;;;;;;12.56;87.35;101983.41;4953394;29;20082;-79
2022/07/05 01:24:05;;;;;;;10.13;8.67;;;;;;;12.56;87.52;101994.28;4948604;29;20104;-78
2022/07/05 01:26:31;;;;;;;15.57;9.17;;;;;;;12.64;87.32;101987.84;4951524;29;20023;-78
2022/07/05 01:28:56;;;;;;;11.90;9.33;;;;;;;12.54;86.96;101985.50;4953610;29;20070;-78
2022/07/05 01:31:21;;;;;;;12.50;9.90;;;;;;;12.47;87.38;101988.16;4955521;29;20031;-78
2022/07/05 01:33:47;;;;;;;10.87;8.87;;;;;;;12.35;87.99;101964.41;4935556;29;20464;-78
2022/07/05 01:36:13;;;;;;;12.53;9.90;;;;;;;12.43;88.31;101984.16;4954847;29;20067;-79
2022/07/05 01:38:38;;;;;;;12.90;8.60;;;;;;;12.51;88.09;101980.44;4937644;29;20061;-78
2022/07/05 01:41:04;;;;;;;12.03;9.10;;;;;;;12.52;87.92;101982.13;4953549;29;20468;-79
2022/07/05 01:43:29;;;;;;;10.90;9.10;;;;;;;12.41;87.93;101986.22;4955496;29;20333;-77
2022/07/05 01:45:58;;;;;;;13.00;9.17;;;;;;;12.36;88.66;101979.69;4951177;29;20035;-79
2022/07/05 01:48:25;;;;;;;12.37;9.37;;;;;;;12.21;88.86;101966.16;4954741;29;20019;-78
2022/07/05 01:51:00;;;;;;;12.33;9.13;;;;;;;12.37;89.42;101984.09;4945492;29;20035;-77
2022/07/05 01:53:28;;;;;;;10.70;9.00;;;;;;;12.35;89.70;101980.72;4937382;29;20036;-78
2022/07/05 01:55:56;;;;;;;10.17;9.03;;;;;;;12.27;89.27;101979.00;4928297;29;20443;-79
2022/07/05 01:58:24;;;;;;;12.23;9.30;;;;;;;12.26;89.39;101983.56;4945145;29;20122;-78
2022/07/05 02:00:53;;;;;;;13.47;9.70;;;;;;;12.31;89.45;101980.28;4949619;29;20031;-78
2022/07/05 02:03:18;;;;;;;11.97;9.43;;;;;;;12.40;89.73;101978.25;4949405;29;20058;-78
2022/07/05 02:05:45;;;;;;;12.20;9.23;;;;;;;12.38;89.45;101977.63;4920951;29;20032;-78
2022/07/05 02:08:11;;;;;;;11.77;9.70;;;;;;;12.24;89.47;101968.50;4954027;29;20094;-78
2022/07/05 02:10:38;;;;;;;10.87;8.67;;;;;;;12.26;89.57;101975.41;4953451;29;20372;-78
2022/07/05 02:13:04;;;;;;;10.47;8.50;;;;;;;12.24;89.67;101971.22;4937290;29;20041;-78
2022/07/05 02:15:32;;;;;;;11.87;8.77;;;;;;;12.31;89.42;101974.84;4947723;29;20027;-79
2022/07/05 02:17:57;;;;;;;11.30;8.87;;;;;;;12.30;88.84;101982.13;4934507;29;20435;-79
2022/07/05 02:20:22;;;;;;;11.70;8.67;;;;;;;12.35;88.85;101980.72;4953875;29;20067;-78
2022/07/05 02:22:48;;;;;;;13.17;9.20;;;;;;;12.15;89.34;101970.50;4942818;29;20032;-79
2022/07/05 02:25:13;;;;;;;12.30;9.33;;;;;;;12.12;89.36;101965.47;4942661;29;20419;-78
2022/07/05 02:27:38;;;;;;;12.20;9.57;;;;;;;12.20;89.23;101978.94;4941794;29;20122;-78
2022/07/05 02:30:04;;;;;;;12.03;9.90;;;;;;;12.17;89.07;101979.28;4957400;29;20027;-78
2022/07/05 02:32:31;;;;;;;13.03;9.30;;;;;;;12.14;88.91;101976.97;4939774;29;20039;-78
2022/07/05 02:34:57;;;;;;;13.63;10.00;;;;;;;12.01;89.82;101979.56;4953591;29;20055;-79
2022/07/05 02:37:22;;;;;;;12.90;9.93;;;;;;;11.99;90.25;101988.75;4957445;29;20066;-78
2022/07/05 02:39:47;;;;;;;13.20;10.13;;;;;;;11.91;90.74;101977.13;4933856;29;20376;-78
2022/07/05 02:42:13;;;;;;;12.37;9.43;;;;;;;11.91;91.13;101979.84;4951811;29;20042;-78
2022/07/05 02:44:38;;;;;;;13.93;9.83;;;;;;;11.92;91.38;101976.09;4932784;29;20079;-78
2022/07/05 02:47:03;;;;;;;12.10;8.97;;;;;;;11.97;90.99;101985.38;4951603;29;20031;-79
2022/07/05 02:49:29;;;;;;;13.17;9.63;;;;;;;11.86;90.44;101982.28;4958042;29;20041;-78
2022/07/05 02:51:54;;;;;;;12.33;9.77;;;;;;;11.72;90.85;101976.75;4941630;29;20103;-78
2022/07/05 02:54:19;;;;;;;12.13;9.97;;;;;;;11.86;91.15;101999.44;4956988;29;20118;-78
2022/07/05 02:56:45;;;;;;;12.00;9.77;;;;;;;11.86;91.73;101999.44;4957659;29;20070;-78
2022/07/05 02:59:10;;;;;;;13.73;9.70;;;;;;;11.85;91.72;101995.03;4940138;29;20028;-79
2022/07/05 03:01:35;;;;;;;12.40;9.70;;;;;;;11.85;91.79;101986.91;4940840;29;20094;-79
2022/07/05 03:04:01;;;;;;;12.40;9.43;;;;;;;11.99;91.31;101999.63;4939262;29;20046;-79
2022/07/05 03:06:26;;;;;;;11.93;10.13;;;;;;;11.82;91.30;101993.56;4955643;29;20033;-78
2022/07/05 03:08:51;;;;;;;12.83;9.70;;;;;;;11.83;91.14;101995.25;4939627;29;20059;-78
2022/07/05 03:11:17;;;;;;;13.60;10.13;;;;;;;11.86;91.29;101994.03;4950565;29;20472;-78
2022/07/05 03:13:42;;;;;;;13.20;9.87;;;;;;;11.88;91.44;101996.53;4940625;29;20114;-78
2022/07/05 03:16:08;;;;;;;13.17;10.93;;;;;;;11.89;91.75;102009.91;4949840;29;20028;-78
2022/07/05 03:18:33;;;;;;;12.53;9.63;;;;;;;11.83;92.26;102006.09;4937921;29;20413;-78
2022/07/05 03:20:58;;;;;;;14.07;10.97;;;;;;;11.82;92.32;102009.00;4957515;29;20034;-79
2022/07/05 03:23:24;;;;;;;14.20;10.87;;;;;;;11.74;92.17;101999.09;4952648;28;20468;-78
2022/07/05 03:25:49;;;;;;;12.43;10.63;;;;;;;11.85;91.63;102013.22;4955646;29;20460;-79
2022/07/05 03:28:14;;;;;;;13.80;10.43;;;;;;;11.85;91.67;102014.06;4957749;29;20035;-79
2022/07/05 03:30:40;;;;;;;12.77;10.33;;;;;;;11.88;91.81;102007.41;4958026;29;20456;-79
2022/07/05 03:33:05;;;;;;;15.33;10.87;;;;;;;11.90;91.95;102018.91;4957057;29;20027;-78
2022/07/05 03:35:30;;;;;;;12.43;10.23;;;;;;;11.73;91.86;102008.28;4938459;29;20039;-79
2022/07/05 03:37:56;;;;;;;13.43;10.47;;;;;;;11.76;92.24;102026.91;4957088;29;20130;-78
2022/07/05 03:40:21;;;;;;;14.07;11.20;;;;;;;11.72;92.30;102019.31;4957785;29;20034;-79
2022/07/05 03:42:47;;;;;;;14.33;11.17;;;;;;;11.68;92.12;102018.03;4957690;29;20046;-78
2022/07/05 03:45:12;;;;;;;14.57;11.53;;;;;;;11.66;92.62;102010.06;4956566;29;20047;-79
2022/07/05 03:47:38;;;;;;;15.80;11.80;;;;;;;11.68;92.76;102009.88;4926187;29;20487;-78
2022/07/05 03:50:04;;;;;;;17.47;12.50;;;;;;;11.70;93.16;102015.97;4943203;29;20031;-79
2022/07/05 03:52:29;;;;;;;14.67;11.90;;;;;;;11.76;94.08;102015.19;4938217;29;20086;-79
2022/07/05 03:54:55;;;;;;;14.50;11.60;;;;;;;11.78;94.51;102015.88;4937821;29;20036;-79
2022/07/05 03:57:21;;;;;;;16.80;12.03;;;;;;;11.84;94.20;102023.22;4935807;29;20110;-78
2022/07/05 03:59:46;;;;;;;17.57;12.60;;;;;;;11.76;94.65;102015.19;4955818;29;20038;-79
2022/07/05 04:02:12;;;;;;;17.53;13.07;;;;;;;11.85;95.32;102018.66;4951335;29;20027;-79
2022/07/05 04:04:37;;;;;;;18.53;13.63;;;;;;;11.92;95.64;102031.25;4943847;29;20074;-78
2022/07/05 04:07:03;;;;;;;21.17;15.43;;;;;;;12.00;95.81;102035.78;4957259;29;20031;-78
2022/07/05 04:09:28;;;;;;;20.77;15.40;;;;;;;12.07;96.37;102028.53;4923119;29;20043;-78
2022/07/05 04:11:54;;;;;;;19.70;15.37;;;;;;;12.19;95.97;102028.88;4954243;29;20031;-78
2022/07/05 04:14:19;;;;;;;20.07;15.87;;;;;;;12.26;96.15;102028.94;4938554;29;20531;-78
2022/07/05 04:16:44;;;;;;;22.00;16.83;;;;;;;12.36;96.06;102037.59;4955904;29;20037;-76
2022/07/05 04:19:10;;;;;;;22.40;16.10;;;;;;;12.45;95.90;102024.72;4956472;29;20027;-78
2022/07/05 04:21:35;;;;;;;20.97;16.40;;;;;;;12.51;95.71;102029.34;4942727;29;20043;-78
2022/07/05 04:24:00;;;;;;;22.47;16.47;;;;;;;12.61;95.75;102040.75;4949890;29;20110;-82
2022/07/05 04:26:26;;;;;;;22.27;16.53;;;;;;;12.74;95.00;102039.19;4949523;29;20066;-78
2022/07/05 04:28:51;;;;;;;22.37;16.33;;;;;;;12.83;93.58;102032.56;4937693;29;20051;-78
2022/07/05 04:31:16;;;;;;;20.27;15.90;;;;;;;12.91;95.32;102037.03;4947493;29;20110;-78
2022/07/05 04:33:42;;;;;;;19.77;16.03;;;;;;;13.03;96.10;102046.31;4935998;29;20047;-78
2022/07/05 04:36:07;;;;;;;22.33;15.80;;;;;;;13.12;95.66;102036.09;4955738;28;20047;-79
2022/07/05 04:38:33;;;;;;;20.07;15.40;;;;;;;13.18;95.28;102041.59;4955649;29;20039;-78
2022/07/05 04:40:58;;;;;;;19.27;14.97;;;;;;;13.23;94.35;102045.59;4937716;29;20039;-78
2022/07/05 04:43:23;;;;;;;19.03;15.00;;;;;;;13.30;94.55;102036.44;4938785;29;20035;-78
2022/07/05 04:45:49;;;;;;;22.27;16.40;;;;;;;13.38;94.43;102045.50;4954493;29;20035;-78
2022/07/05 04:48:14;;;;;;;19.33;14.27;;;;;;;13.42;92.60;102038.59;4949056;29;20024;-78
2022/07/05 04:50:40;;;;;;;19.20;13.70;;;;;;;13.48;91.00;102041.34;4932971;29;20472;-78
2022/07/05 04:53:05;;;;;;;19.00;14.17;;;;;;;13.56;91.33;102042.22;4949960;29;20035;-78
2022/07/05 04:55:30;;;;;;;18.57;13.50;;;;;;;13.62;89.81;102041.44;4954951;29;20042;-78
2022/07/05 04:57:56;;;;;;;19.37;13.63;;;;;;;13.67;89.40;102037.03;4953977;29;20035;-78
2022/07/05 05:00:21;;;;;;;17.47;12.87;;;;;;;13.70;89.38;102038.53;4955645;29;20035;-78
2022/07/05 05:02:46;;;;;;;18.23;13.03;;;;;;;13.76;89.19;102043.19;4955435;29;20031;-78
2022/07/05 05:05:12;;;;;;;20.00;13.67;;;;;;;13.83;90.41;102041.31;4937645;29;20487;-78
2022/07/05 05:07:42;;;;;;;19.23;13.77;;;;;;;14.02;91.04;102038.84;4955663;29;20093;-78
2022/07/05 05:10:07;;;;;;;19.87;14.70;;;;;;;14.11;91.83;102031.31;4938871;29;20035;-78
2022/07/05 05:12:33;;;;;;;19.23;14.33;;;;;;;14.14;90.64;102033.63;4937657;29;20043;-78
2022/07/05 05:14:58;;;;;;;21.17;13.50;;;;;;;14.25;89.34;102035.75;4954685;29;20031;-78
2022/07/05 05:17:24;;;;;;;18.43;13.20;;;;;;;14.32;88.23;102035.72;4953010;29;20023;-78
2022/07/05 05:19:49;;;;;;;17.53;13.70;;;;;;;14.41;88.87;102044.56;4954437;29;20027;-78
2022/07/05 05:22:14;;;;;;;18.37;12.73;;;;;;;14.61;89.45;102039.97;4955955;29;20065;-78
2022/07/05 05:24:40;;;;;;;21.90;15.43;;;;;;;14.59;92.72;102054.84;4921564;29;20115;-78
2022/07/05 05:27:05;;;;;;;19.50;13.87;;;;;;;14.63;88.87;102065.19;4937995;29;20031;-79
2022/07/05 05:29:30;;;;;;;19.57;13.33;;;;;;;14.70;87.09;102057.00;4955153;29;20090;-78
2022/07/05 05:31:56;;;;;;;17.13;11.97;;;;;;;14.75;85.64;102062.66;4954626;29;20043;-81
2022/07/05 05:34:21;;;;;;;16.47;12.13;;;;;;;14.81;85.05;102059.09;4942838;29;20039;-79
2022/07/05 05:36:46;;;;;;;17.23;12.30;;;;;;;14.73;84.38;102053.84;4955408;29;20042;-78
2022/07/05 05:39:12;;;;;;;15.47;12.00;;;;;;;14.91;84.04;102076.94;4956279;29;20027;-78
2022/07/05 05:41:38;;;;;;;14.93;11.20;;;;;;;14.96;83.65;102074.41;4938287;29;20043;-78
2022/07/05 05:44:03;;;;;;;15.53;11.63;;;;;;;14.94;82.71;102068.31;4955495;29;20035;-77
2022/07/05 05:46:29;;;;;;;18.37;12.07;;;;;;;15.02;82.83;102077.13;4955776;29;20031;-78
2022/07/05 05:48:54;;;;;;;17.73;12.40;;;;;;;15.03;83.63;102056.97;4956106;28;20532;-78
2022/07/05 05:51:19;;;;;;;18.03;11.87;;;;;;;15.13;83.95;102075.63;4922967;29;20032;-78
2022/07/05 05:53:45;;;;;;;16.13;11.47;;;;;;;15.18;82.98;102075.03;4938736;29;20055;-79
2022/07/05 05:56:12;;;;;;;18.10;12.47;;;;;;;15.18;82.49;102073.13;4938116;29;20035;-79
2022/07/05 05:58:37;;;;;;;19.07;12.07;;;;;;;15.25;82.77;102084.03;4936737;29;20039;-79
2022/07/05 06:01:02;;;;;;;17.77;12.57;;;;;;;15.26;82.82;102085.72;4937624;29;20153;-79
2022/07/05 06:03:28;;;;;;;18.23;12.37;;;;;;;15.35;82.80;102089.91;4928546;29;20109;-78
2022/07/05 06:05:54;;;;;;;18.13;12.77;;;;;;;15.38;82.84;102087.78;4951178;29;20531;-78
2022/07/05 06:08:19;;;;;;;18.17;12.13;;;;;;;15.53;82.54;102091.13;4958576;29;20400;-79
2022/07/05 06:10:45;;;;;;;17.80;11.90;;;;;;;15.63;81.41;102096.13;4957605;29;20424;-78
2022/07/05 06:13:13;;;;;;;14.83;11.77;;;;;;;15.69;81.24;102096.09;4953856;29;20075;-78
2022/07/05 06:15:39;;;;;;;20.27;11.30;;;;;;;15.79;80.83;102100.25;4948942;29;20049;-78
2022/07/05 06:18:06;;;;;;;16.07;10.67;;;;;;;15.83;80.07;102101.56;4949752;29;20034;-78
2022/07/05 06:20:33;;;;;;;15.70;11.77;;;;;;;15.85;79.54;102089.34;4958304;29;20110;-78
2022/07/05 06:23:00;;;;;;;14.47;10.87;;;;;;;15.94;80.26;102100.88;4957873;29;20037;-78
2022/07/05 06:25:25;;;;;;;20.87;11.37;;;;;;;16.02;79.74;102099.78;4926209;29;20380;-78
2022/07/05 06:27:53;;;;;;;13.27;9.30;;;;;;;16.08;78.69;102093.44;4958499;29;20031;-78
2022/07/05 06:30:20;;;;;;;15.90;11.00;;;;;;;16.18;77.84;102096.56;4957810;29;20023;-77
2022/07/05 06:32:47;;;;;;;12.00;9.43;;;;;;;16.22;76.58;102102.41;4955545;29;20086;-78
2022/07/05 06:35:13;;;;;;;15.10;9.97;;;;;;;16.27;76.73;102113.53;4958026;29;20035;-78
2022/07/05 06:37:49;;;;;;;14.13;9.70;;;;;;;16.34;76.67;102108.03;4955102;29;20032;-78
2022/07/05 06:40:18;;;;;;;12.10;9.27;;;;;;;16.38;76.13;102106.53;4948394;29;20031;-78
2022/07/05 06:42:44;;;;;;;11.63;9.03;;;;;;;16.47;76.67;102107.09;4956130;29;20066;-78
2022/07/05 06:45:10;;;;;;;12.97;9.13;;;;;;;16.55;75.58;102112.31;4953831;29;20114;-78
2022/07/05 06:47:35;;;;;;;14.57;9.30;;;;;;;16.60;76.72;102108.91;4956626;29;20074;-77
2022/07/05 06:50:03;;;;;;;13.20;8.93;;;;;;;16.66;74.96;102106.13;4942966;29;20039;-80
2022/07/05 06:52:29;;;;;;;15.53;9.33;;;;;;;16.71;75.43;102108.19;4952283;29;20023;-79
2022/07/05 06:54:54;;;;;;;12.13;9.00;;;;;;;16.80;74.30;102111.50;4954385;29;20375;-78
2022/07/05 06:57:21;;;;;;;12.87;9.20;;;;;;;16.91;74.05;102112.72;4943509;29;20035;-78
2022/07/05 06:59:46;;;;;;;9.37;7.77;;;;;;;16.97;71.90;102112.66;4957135;28;20031;-78
2022/07/05 07:02:12;;;;;;;10.50;8.17;;;;;;;17.04;74.51;102104.38;4946678;29;20472;-78
2022/07/05 07:04:37;;;;;;;11.27;8.63;;;;;;;17.15;71.42;102105.56;4946193;29;20042;-78
2022/07/05 07:07:02;;;;;;;9.40;7.60;;;;;;;17.27;69.17;102106.47;4947818;29;20139;-77
2022/07/05 07:09:28;;;;;;;10.77;8.80;;;;;;;17.42;71.41;102108.00;4955824;29;20110;-78
2022/07/05 07:11:53;;;;;;;12.20;8.53;;;;;;;17.48;72.27;102110.69;4956260;29;20039;-78
2022/07/05 07:14:18;;;;;;;10.93;8.00;;;;;;;17.45;70.26;102116.63;4957803;29;20061;-78
2022/07/05 07:16:44;;;;;;;12.73;9.10;;;;;;;17.72;72.51;102117.16;4957534;29;20046;-78
2022/07/05 07:19:09;;;;;;;12.43;8.70;;;;;;;17.68;70.11;102118.69;4957539;29;20058;-78
2022/07/05 07:21:35;;;;;;;14.30;9.23;;;;;;;17.68;71.45;102126.06;4921608;29;20038;-78
2022/07/05 07:24:01;;;;;;;13.53;9.57;;;;;;;17.78;72.31;102123.63;4949837;29;20047;-78
2022/07/05 07:26:26;;;;;;;11.57;8.97;;;;;;;17.80;70.78;102120.66;4947173;29;20040;-78
2022/07/05 07:28:51;;;;;;;12.30;8.50;;;;;;;17.90;69.82;102123.69;4953095;29;20165;-78
2022/07/05 07:31:17;;;;;;;14.70;9.87;;;;;;;18.03;70.09;102130.94;4954734;29;20118;-78
2022/07/05 07:33:42;;;;;;;10.33;8.20;;;;;;;18.17;70.52;102120.66;4957587;29;20031;-83
2022/07/05 07:36:08;;;;;;;11.53;8.00;;;;;;;18.21;70.57;102119.94;4931971;29;20031;-78
2022/07/05 07:38:33;;;;;;;12.27;7.87;;;;;;;18.16;70.01;102128.03;4957862;29;20027;-78
2022/07/05 07:41:00;;;;;;;13.37;8.50;;;;;;;18.19;71.69;102119.31;4956088;29;20058;-78
2022/07/05 07:43:26;;;;;;;13.73;8.60;;;;;;;18.18;69.95;102127.78;4950422;29;20067;-78
2022/07/05 07:45:51;;;;;;;12.67;8.77;;;;;;;18.19;70.03;102135.78;4938780;29;20480;-79
2022/07/05 07:48:16;;;;;;;14.00;9.40;;;;;;;18.23;69.15;102136.16;4937738;29;20040;-78
2022/07/05 07:50:42;;;;;;;13.83;9.03;;;;;;;18.28;69.00;102136.31;4955012;29;20109;-78
2022/07/05 07:53:07;;;;;;;14.83;7.90;;;;;;;18.34;69.83;102134.53;4956823;29;20035;-79
2022/07/05 07:55:32;;;;;;;12.00;8.20;;;;;;;18.44;69.80;102133.97;4957087;29;20031;-78
2022/07/05 07:57:58;;;;;;;11.53;8.40;;;;;;;18.57;69.33;102136.53;4939545;29;20035;-79
2022/07/05 08:00:23;;;;;;;12.27;7.95;;;;;;;18.65;69.10;102138.13;4955233;29;20368;-78
2022/07/05 08:02:49;;;;;;;9.57;7.27;;;;;;;18.73;69.02;102135.03;4957247;29;20027;-78
2022/07/05 08:05:14;;;;;;;13.77;7.50;;;;;;;18.78;69.38;102140.66;4957253;29;20423;-79
2022/07/05 08:07:39;;;;;;;11.68;6.40;;;;;;;18.94;67.95;102138.31;4954898;29;20057;-80
2022/07/05 08:10:06;;;;;;;9.80;6.65;;;;;;;19.01;68.86;102139.03;4956065;28;20074;-79
2022/07/05 08:12:31;;;;;;;10.38;6.82;;;;;;;19.05;69.04;102135.59;4953472;29;20082;-78
2022/07/05 08:14:56;;;;;;;10.50;6.35;;;;;;;19.22;69.54;102145.88;4954218;29;20078;-79
2022/07/05 08:17:22;;;;;;;10.77;6.78;;;;;;;19.26;68.80;102144.31;4922738;29;20031;-78
2022/07/05 08:22:31;;;;;;;12.05;6.20;;;;;;;19.41;68.65;102149.34;4955485;29;20066;-78
2022/07/05 08:24:57;;;;;;;10.13;6.30;;;;;;;19.32;66.41;102146.09;4956902;29;20031;-78
2022/07/05 08:27:23;;;;;;;10.82;6.30;;;;;;;19.46;67.67;102140.34;4953958;29;20041;-79
2022/07/05 08:29:49;;;;;;;11.13;6.00;;;;;;;19.49;66.93;102139.91;4927541;29;20168;-78
2022/07/05 08:32:15;;;;;;;11.93;6.07;;;;;;;19.56;67.03;102140.59;4944084;29;20027;-78
2022/07/05 08:34:40;;;;;;;14.20;6.85;;;;;;;19.60;67.59;102147.28;4955283;29;20031;-78
2022/07/05 08:37:06;;;;;;;10.95;6.07;;;;;;;19.43;66.51;102140.84;4950425;29;20102;-78
2022/07/05 08:39:32;;;;;;;13.27;7.00;;;;;;;19.50;68.24;102147.03;4945856;29;20035;-78
2022/07/05 08:41:59;;;;;;;13.88;6.88;;;;;;;19.49;66.96;102140.72;4952980;29;20038;-79
2022/07/05 08:44:27;;;;;;;11.48;7.07;;;;;;;19.95;67.26;102146.41;4951053;29;20047;-80
2022/07/05 08:46:55;;;;;;;12.32;6.72;;;;;;;20.05;66.46;102154.03;4936970;29;20486;-79
2022/07/05 08:49:27;;;;;;;13.52;7.63;;;;;;;20.13;65.94;102144.56;4913250;29;20039;-78
2022/07/05 08:51:54;;;;;;;14.02;7.15;;;;;;;20.30;66.41;102139.09;4955040;29;20039;-78
2022/07/05 08:54:20;;;;;;;9.10;6.50;;;;;;;20.56;65.45;102140.41;4951707;29;20508;-79
2022/07/05 08:56:45;;;;;;;12.27;6.68;;;;;;;20.58;63.11;102146.53;4955722;29;20121;-80
2022/07/05 08:59:11;;;;;;;12.52;6.60;;;;;;;20.70;62.88;102128.03;4954358;29;20170;-78
2022/07/05 09:01:38;;;;;;;9.35;6.63;;;;;;;20.90;62.55;102140.47;4954362;29;20031;-79
2022/07/05 09:04:09;;;;;;;9.57;5.45;;;;;;;21.13;61.81;102138.66;4919936;29;20370;-79
2022/07/05 09:06:37;;;;;;;9.35;5.40;;;;;;;21.52;61.46;102141.44;4948905;29;20335;-78
2022/07/05 09:09:03;;;;;;;10.65;5.90;;;;;;;21.64;59.48;102139.41;4955535;29;20051;-79
2022/07/05 09:11:37;;;;;;;8.52;5.25;;;;;;;22.17;59.39;102138.97;4950390;29;20070;-80
2022/07/05 09:14:05;;;;;;;13.23;6.63;;;;;;;22.27;58.99;102141.81;4951365;29;20043;-79
2022/07/05 09:16:31;;;;;;;14.07;6.43;;;;;;;22.41;56.16;102140.38;4939146;29;20057;-79
2022/07/05 09:19:05;;;;;;;13.07;7.28;;;;;;;22.73;56.31;102139.53;4936229;29;20027;-79
2022/07/05 09:21:31;;;;;;;;;;;;;;;23.23;55.49;102153.25;4936837;29;20411;-79
2022/07/05 09:24:01;;;;;;;7.82;3.60;;;;;;;22.48;53.18;102148.44;4953602;29;19969;-79
2022/07/05 09:26:40;;;;;;;8.27;3.50;;;;;;;22.60;51.39;102145.50;4953660;29;20075;-79
2022/07/05 09:29:13;;;;;;;8.15;3.53;;;;;;;22.92;53.08;102130.88;4955091;29;20031;-79
2022/07/05 09:31:41;;;;;;;8.60;4.00;;;;;;;23.02;52.18;102143.94;4954469;29;20035;-79
2022/07/05 09:34:12;;;;;;;6.18;3.42;;;;;;;23.06;50.25;102134.00;4936493;29;20049;-81
2022/07/05 09:36:58;;;;;;;9.02;3.70;;;;;;;23.56;51.81;102140.16;4937500;29;20081;-79
2022/07/05 09:39:29;;;;;;;9.85;4.85;;;;;;;23.46;51.52;102140.09;4954907;29;20089;-80
2022/07/05 09:42:10;;;;;;;9.38;3.53;;;;;;;23.58;50.06;102138.81;4938687;29;20051;-79
2022/07/05 09:44:37;;;;;;;6.70;3.58;;;;;;;23.29;49.29;102141.09;4935802;29;20028;-79
2022/07/05 09:47:10;;;;;;;6.78;3.42;;;;;;;23.67;49.31;102135.53;4920406;29;20059;-79
2022/07/05 09:49:37;;;;;;;5.35;2.75;;;;;;;23.79;47.97;102129.78;4932488;29;20455;-78
2022/07/05 09:52:03;;;;;;;6.22;3.13;;;;;;;23.62;45.22;102144.63;4949553;29;20174;-78
2022/07/05 09:54:28;;;;;;;7.97;3.78;;;;;;;23.54;48.49;102143.22;4937923;29;20536;-78
2022/07/05 09:56:54;;;;;;;7.95;4.80;;;;;;;23.40;48.42;102139.25;4953501;29;20039;-79
2022/07/05 09:59:20;;;;;;;6.93;4.35;;;;;;;23.19;50.39;102141.06;4954387;29;20122;-81
2022/07/05 10:01:46;;;;;;;9.60;3.80;;;;;;;23.31;48.81;102136.16;4944322;29;20027;-79
2022/07/05 10:04:11;;;;;;;10.23;4.38;;;;;;;23.09;49.56;102134.31;4952908;29;20027;-79
2022/07/05 10:06:37;;;;;;;7.25;3.60;;;;;;;22.77;45.94;102137.94;4952369;29;20480;-78
2022/07/05 10:09:03;;;;;;;7.90;3.80;;;;;;;22.51;49.75;102139.63;4955581;29;20056;-78
2022/07/05 10:11:29;;;;;;;7.00;3.90;;;;;;;22.09;48.77;102134.75;4953686;29;20102;-79
2022/07/05 10:13:54;;;;;;;9.20;4.30;;;;;;;21.98;51.64;102133.78;4955110;29;20101;-78
2022/07/05 10:16:21;;;;;;;10.05;3.75;;;;;;;21.98;49.77;102142.06;4949004;29;20031;-78
2022/07/05 10:18:51;;;;;;;6.25;3.63;;;;;;;21.82;50.06;102140.19;4942555;29;20054;-79
2022/07/05 10:21:18;;;;;;;8.15;4.35;;;;;;;21.92;50.49;102132.03;4944446;29;20020;-77
2022/07/05 10:23:48;;;;;;;7.78;3.50;;;;;;;21.97;49.63;102134.88;4942708;29;20035;-79
2022/07/05 10:26:15;;;;;;;7.55;3.92;;;;;;;22.08;50.52;102138.56;4926426;29;20035;-78
2022/07/05 10:28:44;;;;;;;6.03;3.45;;;;;;;22.09;48.14;102137.50;4929853;29;20039;-79
2022/07/05 10:31:11;;;;;;;4.78;3.20;;;;;;;22.16;49.43;102140.06;4938430;29;20027;-79
2022/07/05 10:33:37;;;;;;;7.85;3.60;;;;;;;22.28;50.43;102137.97;4945912;28;20046;-78
2022/07/05 10:36:10;;;;;;;12.07;3.70;;;;;;;22.60;50.25;102134.44;4953568;29;20047;-81
2022/07/05 10:38:38;;;;;;;4.93;3.25;;;;;;;22.90;50.11;102144.09;4937867;29;20039;-81
2022/07/05 10:41:06;;;;;;;6.43;3.50;;;;;;;22.82;45.90;102139.06;4937607;29;20585;-79
2022/07/05 10:43:32;;;;;;;7.28;3.95;;;;;;;22.81;47.86;102129.13;4938394;29;20065;-81
2022/07/05 10:45:57;;;;;;;6.25;3.80;;;;;;;22.99;49.69;102133.41;4937810;29;20158;-80
2022/07/05 10:48:27;;;;;;;7.03;3.88;;;;;;;23.16;48.39;102136.91;4938289;29;20035;-80
2022/07/05 10:50:56;;;;;;;5.43;3.72;;;;;;;23.23;47.56;102136.66;4937737;29;20043;-80
2022/07/05 10:53:27;;;;;;;8.95;3.83;;;;;;;23.51;46.37;102129.06;4938084;29;20357;-82
2022/07/05 10:56:18;;;;;;;6.32;2.75;;;;;;;23.51;46.76;102132.66;4937656;29;20818;-81
2022/07/05 10:58:46;;;;;;;5.88;2.78;;;;;;;23.29;46.21;102130.06;4916208;29;20129;-79
2022/07/05 11:01:20;;;;;;;4.82;2.90;;;;;;;23.24;45.79;102139.16;4937494;29;21320;-81
2022/07/05 11:03:47;;;;;;;7.05;3.42;;;;;;;22.87;46.58;102134.41;4939015;29;20043;-83
2022/07/05 11:06:24;;;;;;;5.10;2.88;;;;;;;23.36;46.36;102132.59;4937309;29;20059;-79
2022/07/05 11:08:58;;;;;;;6.13;2.78;;;;;;;23.56;47.93;102145.72;4937446;29;20051;-80
2022/07/05 11:11:34;;;;;;;9.00;4.40;;;;;;;23.22;47.69;102148.81;4937218;29;20038;-84
2022/07/05 11:14:01;;;;;;;5.95;3.95;;;;;;;22.57;49.24;102134.97;4937311;29;20036;-80
2022/07/05 11:16:28;;;;;;;9.07;5.00;;;;;;;22.03;50.92;102147.66;4938044;29;20130;-80